sensor_id;sensor_type;location;lat;lon;timestamp;P1;durP1;ratioP1;P2;durP2;ratioP2
14510;SDS011;7341;50.930;4.038;2023-01-28T00:00:55;15.00;;;10.73;;
14510;SDS011;7341;50.930;4.038;2023-01-28T00:03:30;14.40;;;10.87;;
14510;SDS011;7341;50.930;4.038;2023-01-28T00:06:02;15.23;;;11.90;;
14510;SDS011;7341;50.930;4.038;2023-01-28T00:08:33;12.97;;;11.13;;
14510;SDS011;7341;50.930;4.038;2023-01-28T00:11:03;13.50;;;10.80;;
14510;SDS011;7341;50.930;4.038;2023-01-28T00:13:38;13.47;;;11.27;;
14510;SDS011;7341;50.930;4.038;2023-01-28T00:19:05;14.43;;;10.70;;
14510;SDS011;7341;50.930;4.038;2023-01-28T00:21:32;13.37;;;10.77;;
14510;SDS011;7341;50.930;4.038;2023-01-28T00:24:01;12.30;;;11.00;;
14510;SDS011;7341;50.930;4.038;2023-01-28T00:26:34;15.80;;;11.87;;
14510;SDS011;7341;50.930;4.038;2023-01-28T00:29:03;13.93;;;11.90;;
14510;SDS011;7341;50.930;4.038;2023-01-28T00:34:24;13.10;;;11.10;;
14510;SDS011;7341;50.930;4.038;2023-01-28T00:36:52;10.67;;;9.60;;
14510;SDS011;7341;50.930;4.038;2023-01-28T00:39:29;12.47;;;11.17;;
14510;SDS011;7341;50.930;4.038;2023-01-28T00:41:57;11.73;;;10.43;;
14510;SDS011;7341;50.930;4.038;2023-01-28T00:44:35;15.45;;;14.05;;
14510;SDS011;7341;50.930;4.038;2023-01-28T00:47:14;12.10;;;10.90;;
14510;SDS011;7341;50.930;4.038;2023-01-28T00:49:43;12.27;;;10.97;;
14510;SDS011;7341;50.930;4.038;2023-01-28T00:52:12;12.60;;;11.30;;
14510;SDS011;7341;50.930;4.038;2023-01-28T00:54:39;12.37;;;11.07;;
14510;SDS011;7341;50.930;4.038;2023-01-28T00:57:09;10.47;;;9.47;;
14510;SDS011;7341;50.930;4.038;2023-01-28T00:59:39;11.63;;;10.40;;
14510;SDS011;7341;50.930;4.038;2023-01-28T01:02:07;11.53;;;10.43;;
14510;SDS011;7341;50.930;4.038;2023-01-28T01:04:43;11.50;;;10.30;;
14510;SDS011;7341;50.930;4.038;2023-01-28T01:07:26;10.70;;;9.60;;
14510;SDS011;7341;50.930;4.038;2023-01-28T01:12:33;11.03;;;9.93;;
14510;SDS011;7341;50.930;4.038;2023-01-28T01:15:05;13.70;;;10.43;;
14510;SDS011;7341;50.930;4.038;2023-01-28T01:17:34;11.37;;;10.17;;
14510;SDS011;7341;50.930;4.038;2023-01-28T01:20:03;11.07;;;9.93;;
14510;SDS011;7341;50.930;4.038;2023-01-28T01:22:33;11.50;;;10.17;;
14510;SDS011;7341;50.930;4.038;2023-01-28T01:25:00;12.10;;;10.10;;
14510;SDS011;7341;50.930;4.038;2023-01-28T01:27:29;12.63;;;9.57;;
14510;SDS011;7341;50.930;4.038;2023-01-28T01:29:58;15.03;;;9.80;;
14510;SDS011;7341;50.930;4.038;2023-01-28T01:34:59;12.43;;;9.20;;
14510;SDS011;7341;50.930;4.038;2023-01-28T01:37:26;10.97;;;9.93;;
14510;SDS011;7341;50.930;4.038;2023-01-28T01:39:53;13.67;;;10.30;;
14510;SDS011;7341;50.930;4.038;2023-01-28T01:42:28;14.40;;;13.00;;
14510;SDS011;7341;50.930;4.038;2023-01-28T01:44:56;12.37;;;10.70;;
14510;SDS011;7341;50.930;4.038;2023-01-28T01:47:28;13.07;;;9.77;;
14510;SDS011;7341;50.930;4.038;2023-01-28T01:50:04;13.87;;;10.73;;
14510;SDS011;7341;50.930;4.038;2023-01-28T01:52:40;11.87;;;10.33;;
14510;SDS011;7341;50.930;4.038;2023-01-28T01:55:13;12.03;;;9.57;;
14510;SDS011;7341;50.930;4.038;2023-01-28T01:57:54;11.53;;;9.87;;
14510;SDS011;7341;50.930;4.038;2023-01-28T02:00:27;10.43;;;9.40;;
14510;SDS011;7341;50.930;4.038;2023-01-28T02:03:00;11.00;;;9.90;;
14510;SDS011;7341;50.930;4.038;2023-01-28T02:05:30;10.90;;;8.97;;
14510;SDS011;7341;50.930;4.038;2023-01-28T02:08:03;10.13;;;9.13;;
14510;SDS011;7341;50.930;4.038;2023-01-28T02:17:49;8.77;;;7.93;;
14510;SDS011;7341;50.930;4.038;2023-01-28T02:23:51;9.97;;;8.20;;
14510;SDS011;7341;50.930;4.038;2023-01-28T02:30:51;9.27;;;8.37;;
14510;SDS011;7341;50.930;4.038;2023-01-28T02:33:32;9.83;;;8.57;;
14510;SDS011;7341;50.930;4.038;2023-01-28T02:38:54;9.50;;;8.53;;
14510;SDS011;7341;50.930;4.038;2023-01-28T02:41:32;13.05;;;11.95;;
14510;SDS011;7341;50.930;4.038;2023-01-28T02:44:04;10.00;;;9.07;;
14510;SDS011;7341;50.930;4.038;2023-01-28T02:46:36;10.73;;;9.53;;
14510;SDS011;7341;50.930;4.038;2023-01-28T02:49:24;9.97;;;8.87;;
14510;SDS011;7341;50.930;4.038;2023-01-28T02:52:01;10.53;;;9.43;;
14510;SDS011;7341;50.930;4.038;2023-01-28T02:54:44;10.73;;;9.50;;
14510;SDS011;7341;50.930;4.038;2023-01-28T02:57:26;10.67;;;9.57;;
14510;SDS011;7341;50.930;4.038;2023-01-28T03:00:03;11.30;;;10.10;;
14510;SDS011;7341;50.930;4.038;2023-01-28T03:02:39;11.80;;;10.40;;
14510;SDS011;7341;50.930;4.038;2023-01-28T03:05:22;12.13;;;10.83;;
14510;SDS011;7341;50.930;4.038;2023-01-28T03:07:59;13.60;;;11.50;;
14510;SDS011;7341;50.930;4.038;2023-01-28T03:10:48;12.53;;;11.23;;
14510;SDS011;7341;50.930;4.038;2023-01-28T03:13:34;13.20;;;11.20;;
14510;SDS011;7341;50.930;4.038;2023-01-28T03:16:20;10.27;;;9.27;;
14510;SDS011;7341;50.930;4.038;2023-01-28T03:19:11;12.73;;;10.40;;
14510;SDS011;7341;50.930;4.038;2023-01-28T03:21:57;10.63;;;9.47;;
14510;SDS011;7341;50.930;4.038;2023-01-28T03:27:32;12.97;;;10.10;;
14510;SDS011;7341;50.930;4.038;2023-01-28T03:30:27;13.40;;;9.70;;
14510;SDS011;7341;50.930;4.038;2023-01-28T03:33:16;11.10;;;9.07;;
14510;SDS011;7341;50.930;4.038;2023-01-28T03:36:06;10.53;;;9.43;;
14510;SDS011;7341;50.930;4.038;2023-01-28T03:38:51;10.60;;;9.33;;
14510;SDS011;7341;50.930;4.038;2023-01-28T03:41:21;9.73;;;8.73;;
14510;SDS011;7341;50.930;4.038;2023-01-28T03:43:51;11.20;;;9.83;;
14510;SDS011;7341;50.930;4.038;2023-01-28T03:46:20;9.87;;;8.80;;
14510;SDS011;7341;50.930;4.038;2023-01-28T03:48:49;11.20;;;9.20;;
14510;SDS011;7341;50.930;4.038;2023-01-28T03:51:20;11.57;;;10.00;;
14510;SDS011;7341;50.930;4.038;2023-01-28T03:53:50;9.77;;;8.77;;
14510;SDS011;7341;50.930;4.038;2023-01-28T03:56:17;10.90;;;9.13;;
14510;SDS011;7341;50.930;4.038;2023-01-28T03:58:48;9.20;;;8.30;;
14510;SDS011;7341;50.930;4.038;2023-01-28T04:01:22;9.27;;;8.37;;
14510;SDS011;7341;50.930;4.038;2023-01-28T04:03:49;9.20;;;8.30;;
14510;SDS011;7341;50.930;4.038;2023-01-28T04:06:18;10.17;;;8.90;;
14510;SDS011;7341;50.930;4.038;2023-01-28T04:08:46;9.70;;;8.70;;
14510;SDS011;7341;50.930;4.038;2023-01-28T04:11:19;9.90;;;8.90;;
14510;SDS011;7341;50.930;4.038;2023-01-28T04:13:53;10.37;;;9.27;;
14510;SDS011;7341;50.930;4.038;2023-01-28T04:16:20;11.77;;;9.63;;
14510;SDS011;7341;50.930;4.038;2023-01-28T04:18:47;8.97;;;8.07;;
14510;SDS011;7341;50.930;4.038;2023-01-28T04:21:19;11.73;;;9.10;;
14510;SDS011;7341;50.930;4.038;2023-01-28T04:23:48;9.43;;;8.50;;
14510;SDS011;7341;50.930;4.038;2023-01-28T04:26:18;8.93;;;8.07;;
14510;SDS011;7341;50.930;4.038;2023-01-28T04:28:44;9.53;;;8.53;;
14510;SDS011;7341;50.930;4.038;2023-01-28T04:31:14;9.73;;;8.70;;
14510;SDS011;7341;50.930;4.038;2023-01-28T04:33:41;9.73;;;8.70;;
14510;SDS011;7341;50.930;4.038;2023-01-28T04:36:08;9.90;;;8.47;;
14510;SDS011;7341;50.930;4.038;2023-01-28T04:38:41;10.70;;;9.60;;
14510;SDS011;7341;50.930;4.038;2023-01-28T04:41:09;13.50;;;9.20;;
14510;SDS011;7341;50.930;4.038;2023-01-28T04:43:37;12.67;;;10.87;;
14510;SDS011;7341;50.930;4.038;2023-01-28T04:46:04;10.83;;;9.70;;
14510;SDS011;7341;50.930;4.038;2023-01-28T04:48:33;11.07;;;9.87;;
14510;SDS011;7341;50.930;4.038;2023-01-28T04:51:03;11.23;;;9.57;;
14510;SDS011;7341;50.930;4.038;2023-01-28T04:53:31;11.17;;;10.07;;
14510;SDS011;7341;50.930;4.038;2023-01-28T04:56:01;11.83;;;10.40;;
14510;SDS011;7341;50.930;4.038;2023-01-28T04:58:29;13.07;;;10.03;;
14510;SDS011;7341;50.930;4.038;2023-01-28T05:00:59;11.87;;;10.10;;
14510;SDS011;7341;50.930;4.038;2023-01-28T05:03:34;11.77;;;10.57;;
14510;SDS011;7341;50.930;4.038;2023-01-28T05:06:15;11.07;;;9.93;;
14510;SDS011;7341;50.930;4.038;2023-01-28T05:08:48;12.20;;;10.60;;
14510;SDS011;7341;50.930;4.038;2023-01-28T05:11:20;14.17;;;10.80;;
14510;SDS011;7341;50.930;4.038;2023-01-28T05:13:54;12.10;;;10.80;;
14510;SDS011;7341;50.930;4.038;2023-01-28T05:16:22;13.50;;;10.43;;
14510;SDS011;7341;50.930;4.038;2023-01-28T05:18:53;13.87;;;11.23;;
14510;SDS011;7341;50.930;4.038;2023-01-28T05:21:22;12.40;;;10.80;;
14510;SDS011;7341;50.930;4.038;2023-01-28T05:23:53;12.23;;;10.23;;
14510;SDS011;7341;50.930;4.038;2023-01-28T05:26:27;12.23;;;10.67;;
14510;SDS011;7341;50.930;4.038;2023-01-28T05:28:56;14.63;;;11.87;;
14510;SDS011;7341;50.930;4.038;2023-01-28T05:31:26;17.63;;;11.13;;
14510;SDS011;7341;50.930;4.038;2023-01-28T05:33:54;14.17;;;12.13;;
14510;SDS011;7341;50.930;4.038;2023-01-28T05:36:21;15.13;;;11.83;;
14510;SDS011;7341;50.930;4.038;2023-01-28T05:38:54;17.15;;;15.25;;
14510;SDS011;7341;50.930;4.038;2023-01-28T05:44:15;14.80;;;12.37;;
14510;SDS011;7341;50.930;4.038;2023-01-28T05:46:44;13.13;;;11.73;;
14510;SDS011;7341;50.930;4.038;2023-01-28T05:49:11;13.83;;;11.83;;
14510;SDS011;7341;50.930;4.038;2023-01-28T05:51:40;14.27;;;11.60;;
14510;SDS011;7341;50.930;4.038;2023-01-28T05:54:11;12.90;;;11.10;;
14510;SDS011;7341;50.930;4.038;2023-01-28T05:56:42;13.07;;;11.17;;
14510;SDS011;7341;50.930;4.038;2023-01-28T05:59:12;14.77;;;11.13;;
14510;SDS011;7341;50.930;4.038;2023-01-28T06:01:39;13.50;;;10.97;;
14510;SDS011;7341;50.930;4.038;2023-01-28T06:04:07;13.47;;;11.20;;
14510;SDS011;7341;50.930;4.038;2023-01-28T06:06:37;12.10;;;10.83;;
14510;SDS011;7341;50.930;4.038;2023-01-28T06:09:08;13.30;;;10.67;;
14510;SDS011;7341;50.930;4.038;2023-01-28T06:14:08;12.57;;;10.87;;
14510;SDS011;7341;50.930;4.038;2023-01-28T06:16:36;12.93;;;11.07;;
14510;SDS011;7341;50.930;4.038;2023-01-28T06:19:08;12.37;;;10.93;;
14510;SDS011;7341;50.930;4.038;2023-01-28T06:21:39;13.80;;;10.67;;
14510;SDS011;7341;50.930;4.038;2023-01-28T06:24:08;12.27;;;10.67;;
14510;SDS011;7341;50.930;4.038;2023-01-28T06:26:36;12.53;;;10.63;;
14510;SDS011;7341;50.930;4.038;2023-01-28T06:29:06;12.60;;;11.27;;
14510;SDS011;7341;50.930;4.038;2023-01-28T06:31:36;11.93;;;9.97;;
14510;SDS011;7341;50.930;4.038;2023-01-28T06:36:34;14.70;;;11.33;;
14510;SDS011;7341;50.930;4.038;2023-01-28T06:39:10;14.35;;;12.85;;
14510;SDS011;7341;50.930;4.038;2023-01-28T06:41:39;17.47;;;12.30;;
14510;SDS011;7341;50.930;4.038;2023-01-28T06:44:19;13.77;;;12.00;;
14510;SDS011;7341;50.930;4.038;2023-01-28T06:46:50;14.63;;;11.93;;
14510;SDS011;7341;50.930;4.038;2023-01-28T06:49:24;12.90;;;11.17;;
14510;SDS011;7341;50.930;4.038;2023-01-28T06:51:54;13.77;;;11.37;;
14510;SDS011;7341;50.930;4.038;2023-01-28T06:54:29;13.00;;;11.30;;
14510;SDS011;7341;50.930;4.038;2023-01-28T06:56:56;14.70;;;11.47;;
14510;SDS011;7341;50.930;4.038;2023-01-28T06:59:23;13.03;;;11.60;;
14510;SDS011;7341;50.930;4.038;2023-01-28T07:01:58;14.93;;;13.33;;
14510;SDS011;7341;50.930;4.038;2023-01-28T07:04:31;15.63;;;12.93;;
14510;SDS011;7341;50.930;4.038;2023-01-28T07:06:58;16.17;;;13.53;;
14510;SDS011;7341;50.930;4.038;2023-01-28T07:11:56;17.37;;;14.40;;
14510;SDS011;7341;50.930;4.038;2023-01-28T07:14:30;16.43;;;13.17;;
14510;SDS011;7341;50.930;4.038;2023-01-28T07:17:04;17.07;;;14.13;;
14510;SDS011;7341;50.930;4.038;2023-01-28T07:19:32;17.37;;;14.67;;
14510;SDS011;7341;50.930;4.038;2023-01-28T07:21:59;20.33;;;15.60;;
14510;SDS011;7341;50.930;4.038;2023-01-28T07:24:30;20.67;;;16.37;;
14510;SDS011;7341;50.930;4.038;2023-01-28T07:27:03;20.37;;;17.07;;
14510;SDS011;7341;50.930;4.038;2023-01-28T07:29:31;17.13;;;14.57;;
14510;SDS011;7341;50.930;4.038;2023-01-28T07:31:58;18.57;;;15.03;;
14510;SDS011;7341;50.930;4.038;2023-01-28T07:34:29;18.50;;;15.20;;
14510;SDS011;7341;50.930;4.038;2023-01-28T07:36:58;17.40;;;14.10;;
14510;SDS011;7341;50.930;4.038;2023-01-28T07:39:31;18.23;;;16.27;;
14510;SDS011;7341;50.930;4.038;2023-01-28T07:42:00;17.90;;;13.90;;
14510;SDS011;7341;50.930;4.038;2023-01-28T07:44:27;17.93;;;13.57;;
14510;SDS011;7341;50.930;4.038;2023-01-28T07:46:55;16.77;;;14.27;;
14510;SDS011;7341;50.930;4.038;2023-01-28T07:49:21;16.83;;;13.80;;
14510;SDS011;7341;50.930;4.038;2023-01-28T07:51:50;20.67;;;15.10;;
14510;SDS011;7341;50.930;4.038;2023-01-28T07:54:18;17.47;;;14.03;;
14510;SDS011;7341;50.930;4.038;2023-01-28T07:56:50;19.20;;;14.87;;
14510;SDS011;7341;50.930;4.038;2023-01-28T07:59:18;19.70;;;14.63;;
14510;SDS011;7341;50.930;4.038;2023-01-28T08:01:47;16.57;;;13.20;;
14510;SDS011;7341;50.930;4.038;2023-01-28T08:04:15;18.07;;;14.23;;
14510;SDS011;7341;50.930;4.038;2023-01-28T08:06:42;16.63;;;13.30;;
14510;SDS011;7341;50.930;4.038;2023-01-28T08:09:12;14.97;;;11.63;;
14510;SDS011;7341;50.930;4.038;2023-01-28T08:11:39;17.00;;;12.27;;
14510;SDS011;7341;50.930;4.038;2023-01-28T08:14:09;14.23;;;10.93;;
14510;SDS011;7341;50.930;4.038;2023-01-28T08:16:38;13.40;;;11.47;;
14510;SDS011;7341;50.930;4.038;2023-01-28T08:19:13;13.40;;;11.13;;
14510;SDS011;7341;50.930;4.038;2023-01-28T08:21:46;13.37;;;11.60;;
14510;SDS011;7341;50.930;4.038;2023-01-28T08:24:15;14.57;;;11.53;;
14510;SDS011;7341;50.930;4.038;2023-01-28T08:26:42;14.90;;;12.10;;
14510;SDS011;7341;50.930;4.038;2023-01-28T08:29:10;13.57;;;11.13;;
14510;SDS011;7341;50.930;4.038;2023-01-28T08:31:37;14.37;;;11.47;;
14510;SDS011;7341;50.930;4.038;2023-01-28T08:34:04;15.03;;;12.23;;
14510;SDS011;7341;50.930;4.038;2023-01-28T08:36:31;15.00;;;11.23;;
14510;SDS011;7341;50.930;4.038;2023-01-28T08:38:58;14.97;;;11.73;;
14510;SDS011;7341;50.930;4.038;2023-01-28T08:41:27;14.77;;;12.00;;
14510;SDS011;7341;50.930;4.038;2023-01-28T08:43:55;16.27;;;12.33;;
14510;SDS011;7341;50.930;4.038;2023-01-28T08:46:23;13.83;;;11.40;;
14510;SDS011;7341;50.930;4.038;2023-01-28T08:48:49;13.87;;;11.60;;
14510;SDS011;7341;50.930;4.038;2023-01-28T08:51:16;14.93;;;10.50;;
14510;SDS011;7341;50.930;4.038;2023-01-28T08:53:45;13.63;;;11.57;;
14510;SDS011;7341;50.930;4.038;2023-01-28T08:56:14;15.73;;;12.00;;
14510;SDS011;7341;50.930;4.038;2023-01-28T08:58:46;16.07;;;12.70;;
14510;SDS011;7341;50.930;4.038;2023-01-28T09:01:23;16.10;;;12.73;;
14510;SDS011;7341;50.930;4.038;2023-01-28T09:03:59;15.30;;;10.93;;
14510;SDS011;7341;50.930;4.038;2023-01-28T09:06:32;16.23;;;11.63;;
14510;SDS011;7341;50.930;4.038;2023-01-28T09:09:00;12.93;;;10.83;;
14510;SDS011;7341;50.930;4.038;2023-01-28T09:11:28;15.07;;;11.37;;
14510;SDS011;7341;50.930;4.038;2023-01-28T09:13:57;15.10;;;11.67;;
14510;SDS011;7341;50.930;4.038;2023-01-28T09:16:24;14.93;;;11.27;;
14510;SDS011;7341;50.930;4.038;2023-01-28T09:18:52;13.63;;;11.13;;
14510;SDS011;7341;50.930;4.038;2023-01-28T09:21:19;15.77;;;11.37;;
14510;SDS011;7341;50.930;4.038;2023-01-28T09:23:53;14.03;;;10.60;;
14510;SDS011;7341;50.930;4.038;2023-01-28T09:26:21;19.10;;;12.97;;
14510;SDS011;7341;50.930;4.038;2023-01-28T09:28:50;17.20;;;13.27;;
14510;SDS011;7341;50.930;4.038;2023-01-28T09:31:22;16.57;;;12.33;;
14510;SDS011;7341;50.930;4.038;2023-01-28T09:33:50;16.17;;;12.40;;
14510;SDS011;7341;50.930;4.038;2023-01-28T09:36:26;21.47;;;13.47;;
14510;SDS011;7341;50.930;4.038;2023-01-28T09:38:59;17.53;;;12.23;;
14510;SDS011;7341;50.930;4.038;2023-01-28T09:41:34;17.40;;;12.07;;
14510;SDS011;7341;50.930;4.038;2023-01-28T09:44:19;17.77;;;13.07;;
14510;SDS011;7341;50.930;4.038;2023-01-28T09:47:00;17.37;;;12.93;;
14510;SDS011;7341;50.930;4.038;2023-01-28T09:49:31;17.63;;;13.30;;
14510;SDS011;7341;50.930;4.038;2023-01-28T09:52:02;15.07;;;12.23;;
14510;SDS011;7341;50.930;4.038;2023-01-28T09:54:37;16.43;;;12.70;;
14510;SDS011;7341;50.930;4.038;2023-01-28T09:57:11;16.63;;;13.30;;
14510;SDS011;7341;50.930;4.038;2023-01-28T09:59:46;16.03;;;13.23;;
14510;SDS011;7341;50.930;4.038;2023-01-28T10:02:29;17.53;;;12.87;;
14510;SDS011;7341;50.930;4.038;2023-01-28T10:05:13;16.60;;;12.77;;
14510;SDS011;7341;50.930;4.038;2023-01-28T10:07:48;17.10;;;12.60;;
14510;SDS011;7341;50.930;4.038;2023-01-28T10:13:06;19.43;;;12.77;;
14510;SDS011;7341;50.930;4.038;2023-01-28T10:15:59;20.10;;;13.73;;
14510;SDS011;7341;50.930;4.038;2023-01-28T10:18:38;20.63;;;13.43;;
14510;SDS011;7341;50.930;4.038;2023-01-28T10:21:11;18.90;;;13.57;;
14510;SDS011;7341;50.930;4.038;2023-01-28T10:23:45;16.57;;;12.80;;
14510;SDS011;7341;50.930;4.038;2023-01-28T10:26:23;15.00;;;12.57;;
14510;SDS011;7341;50.930;4.038;2023-01-28T10:28:52;15.70;;;12.60;;
14510;SDS011;7341;50.930;4.038;2023-01-28T10:31:23;17.63;;;12.77;;
14510;SDS011;7341;50.930;4.038;2023-01-28T10:33:58;14.93;;;12.73;;
14510;SDS011;7341;50.930;4.038;2023-01-28T10:36:27;18.53;;;12.83;;
14510;SDS011;7341;50.930;4.038;2023-01-28T10:38:54;19.33;;;12.97;;
14510;SDS011;7341;50.930;4.038;2023-01-28T10:41:21;18.88;;;14.38;;
14510;SDS011;7341;50.930;4.038;2023-01-28T10:43:50;18.03;;;12.73;;
14510;SDS011;7341;50.930;4.038;2023-01-28T10:46:20;18.70;;;13.10;;
14510;SDS011;7341;50.930;4.038;2023-01-28T10:48:52;16.17;;;12.53;;
14510;SDS011;7341;50.930;4.038;2023-01-28T10:51:33;15.90;;;12.60;;
14510;SDS011;7341;50.930;4.038;2023-01-28T10:54:15;16.63;;;11.57;;
14510;SDS011;7341;50.930;4.038;2023-01-28T10:56:48;15.03;;;12.23;;
14510;SDS011;7341;50.930;4.038;2023-01-28T10:59:19;15.47;;;11.90;;
14510;SDS011;7341;50.930;4.038;2023-01-28T11:01:51;16.97;;;12.73;;
14510;SDS011;7341;50.930;4.038;2023-01-28T11:04:22;15.83;;;13.03;;
14510;SDS011;7341;50.930;4.038;2023-01-28T11:06:52;15.77;;;13.07;;
14510;SDS011;7341;50.930;4.038;2023-01-28T11:09:21;18.87;;;13.60;;
14510;SDS011;7341;50.930;4.038;2023-01-28T11:11:49;17.93;;;13.03;;
14510;SDS011;7341;50.930;4.038;2023-01-28T11:14:21;19.30;;;13.13;;
14510;SDS011;7341;50.930;4.038;2023-01-28T11:16:49;15.17;;;12.27;;
14510;SDS011;7341;50.930;4.038;2023-01-28T11:19:18;16.00;;;13.40;;
14510;SDS011;7341;50.930;4.038;2023-01-28T11:21:47;18.40;;;12.83;;
14510;SDS011;7341;50.930;4.038;2023-01-28T11:24:20;14.83;;;11.87;;
14510;SDS011;7341;50.930;4.038;2023-01-28T11:26:51;18.57;;;13.40;;
14510;SDS011;7341;50.930;4.038;2023-01-28T11:29:22;15.77;;;13.07;;
14510;SDS011;7341;50.930;4.038;2023-01-28T11:31:52;15.23;;;12.47;;
14510;SDS011;7341;50.930;4.038;2023-01-28T11:34:19;15.33;;;12.87;;
14510;SDS011;7341;50.930;4.038;2023-01-28T11:36:52;15.77;;;12.57;;
14510;SDS011;7341;50.930;4.038;2023-01-28T11:39:25;16.87;;;12.77;;
14510;SDS011;7341;50.930;4.038;2023-01-28T11:41:53;13.83;;;11.90;;
14510;SDS011;7341;50.930;4.038;2023-01-28T11:44:28;14.77;;;10.80;;
14510;SDS011;7341;50.930;4.038;2023-01-28T11:47:02;14.20;;;11.60;;
14510;SDS011;7341;50.930;4.038;2023-01-28T11:49:42;12.03;;;10.00;;
14510;SDS011;7341;50.930;4.038;2023-01-28T11:52:23;12.83;;;9.50;;
14510;SDS011;7341;50.930;4.038;2023-01-28T11:55:06;11.53;;;9.60;;
14510;SDS011;7341;50.930;4.038;2023-01-28T11:57:49;9.43;;;8.37;;
14510;SDS011;7341;50.930;4.038;2023-01-28T12:00:28;10.67;;;9.10;;
14510;SDS011;7341;50.930;4.038;2023-01-28T12:03:09;11.27;;;8.83;;
14510;SDS011;7341;50.930;4.038;2023-01-28T12:05:47;9.80;;;8.40;;
14510;SDS011;7341;50.930;4.038;2023-01-28T12:08:20;9.63;;;8.47;;
14510;SDS011;7341;50.930;4.038;2023-01-28T12:10:59;9.63;;;8.27;;
14510;SDS011;7341;50.930;4.038;2023-01-28T12:13:40;10.07;;;8.93;;
14510;SDS011;7341;50.930;4.038;2023-01-28T12:16:24;9.63;;;8.63;;
14510;SDS011;7341;50.930;4.038;2023-01-28T12:19:08;10.23;;;7.17;;
14510;SDS011;7341;50.930;4.038;2023-01-28T12:24:43;10.03;;;6.23;;
14510;SDS011;7341;50.930;4.038;2023-01-28T12:27:32;6.43;;;5.83;;
14510;SDS011;7341;50.930;4.038;2023-01-28T12:30:13;6.03;;;5.47;;
14510;SDS011;7341;50.930;4.038;2023-01-28T12:32:50;6.07;;;5.17;;
14510;SDS011;7341;50.930;4.038;2023-01-28T12:35:30;5.37;;;4.90;;
14510;SDS011;7341;50.930;4.038;2023-01-28T12:38:11;6.17;;;4.73;;
14510;SDS011;7341;50.930;4.038;2023-01-28T12:43:31;6.53;;;4.90;;
14510;SDS011;7341;50.930;4.038;2023-01-28T12:46:09;8.60;;;6.17;;
14510;SDS011;7341;50.930;4.038;2023-01-28T12:48:43;9.70;;;6.13;;
14510;SDS011;7341;50.930;4.038;2023-01-28T12:51:14;6.83;;;6.23;;
14510;SDS011;7341;50.930;4.038;2023-01-28T12:53:46;9.03;;;7.13;;
14510;SDS011;7341;50.930;4.038;2023-01-28T12:56:18;9.77;;;7.40;;
14510;SDS011;7341;50.930;4.038;2023-01-28T12:58:52;7.70;;;6.83;;
14510;SDS011;7341;50.930;4.038;2023-01-28T13:01:24;8.03;;;6.87;;
14510;SDS011;7341;50.930;4.038;2023-01-28T13:03:54;7.63;;;6.43;;
14510;SDS011;7341;50.930;4.038;2023-01-28T13:06:29;9.90;;;7.00;;
14510;SDS011;7341;50.930;4.038;2023-01-28T13:09:03;6.63;;;6.03;;
14510;SDS011;7341;50.930;4.038;2023-01-28T13:11:39;6.50;;;5.90;;
14510;SDS011;7341;50.930;4.038;2023-01-28T13:14:08;7.13;;;6.27;;
14510;SDS011;7341;50.930;4.038;2023-01-28T13:16:37;6.77;;;6.00;;
14510;SDS011;7341;50.930;4.038;2023-01-28T13:19:05;7.13;;;6.07;;
14510;SDS011;7341;50.930;4.038;2023-01-28T13:21:34;6.40;;;5.80;;
14510;SDS011;7341;50.930;4.038;2023-01-28T13:24:05;7.50;;;6.37;;
14510;SDS011;7341;50.930;4.038;2023-01-28T13:26:47;7.20;;;6.50;;
14510;SDS011;7341;50.930;4.038;2023-01-28T13:29:18;6.90;;;6.20;;
14510;SDS011;7341;50.930;4.038;2023-01-28T13:31:53;6.33;;;5.40;;
14510;SDS011;7341;50.930;4.038;2023-01-28T13:34:26;7.17;;;5.80;;
14510;SDS011;7341;50.930;4.038;2023-01-28T13:36:57;6.57;;;5.93;;
14510;SDS011;7341;50.930;4.038;2023-01-28T13:39:27;6.10;;;5.60;;
14510;SDS011;7341;50.930;4.038;2023-01-28T13:42:06;7.43;;;5.93;;
14510;SDS011;7341;50.930;4.038;2023-01-28T13:44:37;7.45;;;6.75;;
14510;SDS011;7341;50.930;4.038;2023-01-28T13:49:50;6.97;;;6.17;;
14510;SDS011;7341;50.930;4.038;2023-01-28T13:52:25;6.60;;;6.00;;
14510;SDS011;7341;50.930;4.038;2023-01-28T13:54:57;9.17;;;6.07;;
14510;SDS011;7341;50.930;4.038;2023-01-28T14:00:33;5.97;;;5.47;;
14510;SDS011;7341;50.930;4.038;2023-01-28T14:09:19;6.37;;;5.77;;
14510;SDS011;7341;50.930;4.038;2023-01-28T14:12:04;6.70;;;6.10;;
14510;SDS011;7341;50.930;4.038;2023-01-28T14:18:11;6.60;;;5.90;;
14510;SDS011;7341;50.930;4.038;2023-01-28T14:20:47;6.83;;;5.97;;
14510;SDS011;7341;50.930;4.038;2023-01-28T14:23:18;6.37;;;5.77;;
14510;SDS011;7341;50.930;4.038;2023-01-28T14:25:55;11.00;;;5.93;;
14510;SDS011;7341;50.930;4.038;2023-01-28T14:28:37;8.43;;;6.00;;
14510;SDS011;7341;50.930;4.038;2023-01-28T14:31:13;6.67;;;5.70;;
14510;SDS011;7341;50.930;4.038;2023-01-28T14:33:48;7.73;;;6.33;;
14510;SDS011;7341;50.930;4.038;2023-01-28T14:36:15;8.13;;;5.87;;
14510;SDS011;7341;50.930;4.038;2023-01-28T14:38:43;13.20;;;6.33;;
14510;SDS011;7341;50.930;4.038;2023-01-28T14:41:15;7.87;;;7.07;;
14510;SDS011;7341;50.930;4.038;2023-01-28T14:43:48;8.00;;;6.73;;
14510;SDS011;7341;50.930;4.038;2023-01-28T14:46:18;7.60;;;6.90;;
14510;SDS011;7341;50.930;4.038;2023-01-28T14:48:58;8.40;;;6.87;;
14510;SDS011;7341;50.930;4.038;2023-01-28T14:54:32;8.00;;;6.47;;
14510;SDS011;7341;50.930;4.038;2023-01-28T14:57:15;7.90;;;6.87;;
14510;SDS011;7341;50.930;4.038;2023-01-28T15:00:03;9.80;;;7.13;;
14510;SDS011;7341;50.930;4.038;2023-01-28T15:02:42;9.03;;;7.20;;
14510;SDS011;7341;50.930;4.038;2023-01-28T15:05:13;8.63;;;7.20;;
14510;SDS011;7341;50.930;4.038;2023-01-28T15:07:42;8.57;;;7.23;;
14510;SDS011;7341;50.930;4.038;2023-01-28T15:10:15;7.93;;;7.13;;
14510;SDS011;7341;50.930;4.038;2023-01-28T15:12:46;8.03;;;7.23;;
14510;SDS011;7341;50.930;4.038;2023-01-28T15:15:18;8.77;;;7.20;;
14510;SDS011;7341;50.930;4.038;2023-01-28T15:17:51;9.47;;;6.73;;
14510;SDS011;7341;50.930;4.038;2023-01-28T15:20:20;10.20;;;7.80;;
14510;SDS011;7341;50.930;4.038;2023-01-28T15:22:49;8.77;;;7.13;;
14510;SDS011;7341;50.930;4.038;2023-01-28T15:25:19;8.60;;;7.70;;
14510;SDS011;7341;50.930;4.038;2023-01-28T15:27:49;14.07;;;7.90;;
14510;SDS011;7341;50.930;4.038;2023-01-28T15:30:20;8.57;;;7.67;;
14510;SDS011;7341;50.930;4.038;2023-01-28T15:32:58;7.57;;;6.87;;
14510;SDS011;7341;50.930;4.038;2023-01-28T15:35:31;8.63;;;7.73;;
14510;SDS011;7341;50.930;4.038;2023-01-28T15:38:01;8.87;;;7.80;;
14510;SDS011;7341;50.930;4.038;2023-01-28T15:40:28;9.73;;;7.70;;
14510;SDS011;7341;50.930;4.038;2023-01-28T15:42:56;9.37;;;7.30;;
14510;SDS011;7341;50.930;4.038;2023-01-28T15:45:23;8.63;;;7.73;;
14510;SDS011;7341;50.930;4.038;2023-01-28T15:48:01;10.70;;;9.60;;
14510;SDS011;7341;50.930;4.038;2023-01-28T15:50:34;9.70;;;8.13;;
14510;SDS011;7341;50.930;4.038;2023-01-28T15:53:06;11.77;;;8.73;;
14510;SDS011;7341;50.930;4.038;2023-01-28T15:55:36;8.70;;;7.77;;
14510;SDS011;7341;50.930;4.038;2023-01-28T16:01:01;10.57;;;7.93;;
14510;SDS011;7341;50.930;4.038;2023-01-28T16:03:44;9.93;;;8.87;;
14510;SDS011;7341;50.930;4.038;2023-01-28T16:06:14;12.03;;;8.20;;
14510;SDS011;7341;50.930;4.038;2023-01-28T16:08:46;10.83;;;8.00;;
14510;SDS011;7341;50.930;4.038;2023-01-28T16:11:25;10.57;;;8.67;;
14510;SDS011;7341;50.930;4.038;2023-01-28T16:13:54;12.53;;;8.40;;
14510;SDS011;7341;50.930;4.038;2023-01-28T16:16:26;12.83;;;9.23;;
14510;SDS011;7341;50.930;4.038;2023-01-28T16:18:55;13.38;;;11.18;;
14510;SDS011;7341;50.930;4.038;2023-01-28T16:21:26;10.13;;;9.00;;
14510;SDS011;7341;50.930;4.038;2023-01-28T16:24:00;11.57;;;9.53;;
14510;SDS011;7341;50.930;4.038;2023-01-28T16:26:28;11.13;;;9.17;;